sensor_id;sensor_type;location;lat;lon;timestamp;pressure;altitude;pressure_sealevel;temperature;humidity
45621;BME280;31345;51.522;10.702;2022-11-04T00:00:19;97797.28;;;8.93;100.00
45621;BME280;31345;51.522;10.702;2022-11-04T00:02:49;97801.56;;;8.82;100.00
45621;BME280;31345;51.522;10.702;2022-11-04T00:05:16;97806.31;;;8.77;100.00
45621;BME280;31345;51.522;10.702;2022-11-04T00:07:45;97813.41;;;8.86;100.00
45621;BME280;31345;51.522;10.702;2022-11-04T00:10:30;97810.97;;;8.73;100.00
45621;BME280;31345;51.522;10.702;2022-11-04T00:13:12;97806.19;;;8.90;100.00
45621;BME280;31345;51.522;10.702;2022-11-04T00:15:39;97807.41;;;8.75;100.00
45621;BME280;31345;51.522;10.702;2022-11-04T00:18:25;97793.63;;;8.84;100.00
45621;BME280;31345;51.522;10.702;2022-11-04T00:20:55;97791.53;;;8.78;100.00
45621;BME280;31345;51.522;10.702;2022-11-04T00:23:42;97788.09;;;8.66;100.00
45621;BME280;31345;51.522;10.702;2022-11-04T00:26:27;97785.72;;;8.63;100.00
45621;BME280;31345;51.522;10.702;2022-11-04T00:29:12;97779.19;;;8.68;100.00
45621;BME280;31345;51.522;10.702;2022-11-04T00:31:40;97781.72;;;8.58;100.00
45621;BME280;31345;51.522;10.702;2022-11-04T00:34:26;97773.41;;;8.65;100.00
45621;BME280;31345;51.522;10.702;2022-11-04T00:36:54;97766.78;;;8.72;100.00
45621;BME280;31345;51.522;10.702;2022-11-04T00:39:23;97770.06;;;8.74;100.00
45621;BME280;31345;51.522;10.702;2022-11-04T00:41:51;97776.69;;;8.78;100.00
45621;BME280;31345;51.522;10.702;2022-11-04T00:44:18;97775.03;;;8.77;100.00
45621;BME280;31345;51.522;10.702;2022-11-04T00:46:46;97772.19;;;8.80;100.00
45621;BME280;31345;51.522;10.702;2022-11-04T00:49:14;97772.66;;;8.85;100.00
45621;BME280;31345;51.522;10.702;2022-11-04T00:51:43;97773.59;;;8.84;100.00
45621;BME280;31345;51.522;10.702;2022-11-04T00:54:11;97779.06;;;8.81;100.00
45621;BME280;31345;51.522;10.702;2022-11-04T00:56:40;97767.69;;;8.82;100.00
45621;BME280;31345;51.522;10.702;2022-11-04T00:59:08;97758.94;;;8.83;100.00
45621;BME280;31345;51.522;10.702;2022-11-04T01:01:37;97762.19;;;8.97;100.00
45621;BME280;31345;51.522;10.702;2022-11-04T01:04:05;97769.97;;;9.08;100.00
45621;BME280;31345;51.522;10.702;2022-11-04T01:06:33;97774.50;;;8.95;100.00
45621;BME280;31345;51.522;10.702;2022-11-04T01:09:03;97774.06;;;8.90;100.00
45621;BME280;31345;51.522;10.702;2022-11-04T01:11:32;97768.59;;;8.93;100.00
45621;BME280;31345;51.522;10.702;2022-11-04T01:14:01;97770.94;;;9.07;100.00
45621;BME280;31345;51.522;10.702;2022-11-04T01:16:29;97774.66;;;8.93;100.00
45621;BME280;31345;51.522;10.702;2022-11-04T01:18:58;97772.19;;;8.92;100.00
45621;BME280;31345;51.522;10.702;2022-11-04T01:21:26;97775.94;;;8.99;100.00
45621;BME280;31345;51.522;10.702;2022-11-04T01:23:54;97776.97;;;9.08;100.00
45621;BME280;31345;51.522;10.702;2022-11-04T01:26:24;97778.13;;;9.15;100.00
45621;BME280;31345;51.522;10.702;2022-11-04T01:28:54;97784.88;;;9.18;100.00
45621;BME280;31345;51.522;10.702;2022-11-04T01:31:25;97783.91;;;9.19;100.00
45621;BME280;31345;51.522;10.702;2022-11-04T01:33:54;97794.69;;;9.26;100.00
45621;BME280;31345;51.522;10.702;2022-11-04T01:36:23;97797.50;;;9.34;100.00
45621;BME280;31345;51.522;10.702;2022-11-04T01:38:51;97794.09;;;9.22;100.00
45621;BME280;31345;51.522;10.702;2022-11-04T01:41:24;97800.59;;;9.28;100.00
45621;BME280;31345;51.522;10.702;2022-11-04T01:43:54;97801.44;;;9.28;100.00
45621;BME280;31345;51.522;10.702;2022-11-04T01:46:41;97796.22;;;9.28;100.00
45621;BME280;31345;51.522;10.702;2022-11-04T01:49:23;97797.03;;;9.29;100.00
45621;BME280;31345;51.522;10.702;2022-11-04T01:51:56;97802.63;;;9.24;100.00
45621;BME280;31345;51.522;10.702;2022-11-04T01:54:27;97790.88;;;9.30;100.00
45621;BME280;31345;51.522;10.702;2022-11-04T01:56:57;97802.63;;;9.24;100.00
45621;BME280;31345;51.522;10.702;2022-11-04T01:59:27;97789.59;;;9.24;100.00
45621;BME280;31345;51.522;10.702;2022-11-04T02:01:58;97792.88;;;9.26;100.00
45621;BME280;31345;51.522;10.702;2022-11-04T02:04:26;97787.19;;;9.32;100.00
45621;BME280;31345;51.522;10.702;2022-11-04T02:06:57;97786.28;;;9.43;100.00
45621;BME280;31345;51.522;10.702;2022-11-04T02:09:27;97779.63;;;9.50;100.00
45621;BME280;31345;51.522;10.702;2022-11-04T02:11:56;97769.63;;;9.56;100.00
45621;BME280;31345;51.522;10.702;2022-11-04T02:14:42;97754.94;;;9.55;100.00
45621;BME280;31345;51.522;10.702;2022-11-04T02:17:22;97745.06;;;9.58;100.00
45621;BME280;31345;51.522;10.702;2022-11-04T02:20:07;97741.88;;;9.55;100.00
45621;BME280;31345;51.522;10.702;2022-11-04T02:26:04;97764.34;;;9.67;100.00
45621;BME280;31345;51.522;10.702;2022-11-04T02:29:13;97772.25;;;9.56;100.00
45621;BME280;31345;51.522;10.702;2022-11-04T02:31:50;97764.09;;;9.49;100.00
45621;BME280;31345;51.522;10.702;2022-11-04T02:34:27;97769.44;;;9.47;100.00
45621;BME280;31345;51.522;10.702;2022-11-04T02:37:05;97746.78;;;9.48;100.00
45621;BME280;31345;51.522;10.702;2022-11-04T02:39:42;97743.72;;;9.43;100.00
45621;BME280;31345;51.522;10.702;2022-11-04T02:42:24;97738.31;;;9.56;100.00
45621;BME280;31345;51.522;10.702;2022-11-04T02:45:10;97733.34;;;9.53;100.00
45621;BME280;31345;51.522;10.702;2022-11-04T02:47:42;97735.16;;;9.52;100.00
45621;BME280;31345;51.522;10.702;2022-11-04T02:50:17;97737.16;;;9.48;100.00
45621;BME280;31345;51.522;10.702;2022-11-04T02:52:54;97749.34;;;9.59;100.00
45621;BME280;31345;51.522;10.702;2022-11-04T02:55:25;97754.56;;;9.59;100.00
45621;BME280;31345;51.522;10.702;2022-11-04T02:57:57;97763.31;;;9.58;100.00
45621;BME280;31345;51.522;10.702;2022-11-04T03:00:28;97778.72;;;9.61;100.00
45621;BME280;31345;51.522;10.702;2022-11-04T03:02:59;97784.38;;;9.67;100.00
45621;BME280;31345;51.522;10.702;2022-11-04T03:05:32;97784.25;;;9.89;100.00
45621;BME280;31345;51.522;10.702;2022-11-04T03:08:05;97793.88;;;9.68;100.00
45621;BME280;31345;51.522;10.702;2022-11-04T03:10:37;97808.97;;;9.64;100.00
45621;BME280;31345;51.522;10.702;2022-11-04T03:13:11;97807.88;;;9.67;100.00
45621;BME280;31345;51.522;10.702;2022-11-04T03:15:47;97820.13;;;9.66;100.00
45621;BME280;31345;51.522;10.702;2022-11-04T03:18:22;97822.19;;;9.72;100.00
45621;BME280;31345;51.522;10.702;2022-11-04T03:20:55;97811.13;;;9.80;100.00
45621;BME280;31345;51.522;10.702;2022-11-04T03:23:25;97821.00;;;9.76;100.00
45621;BME280;31345;51.522;10.702;2022-11-04T03:25:57;97826.91;;;9.79;100.00
45621;BME280;31345;51.522;10.702;2022-11-04T03:28:36;97829.41;;;9.80;100.00
45621;BME280;31345;51.522;10.702;2022-11-04T03:31:10;97834.03;;;9.76;100.00
45621;BME280;31345;51.522;10.702;2022-11-04T03:33:44;97832.38;;;9.75;100.00
45621;BME280;31345;51.522;10.702;2022-11-04T03:36:14;97828.63;;;9.89;100.00
45621;BME280;31345;51.522;10.702;2022-11-04T03:38:43;97832.13;;;9.79;100.00
45621;BME280;31345;51.522;10.702;2022-11-04T03:41:13;97830.63;;;9.76;100.00
45621;BME280;31345;51.522;10.702;2022-11-04T03:43:42;97836.03;;;9.84;100.00
45621;BME280;31345;51.522;10.702;2022-11-04T03:46:11;97831.88;;;9.82;100.00
45621;BME280;31345;51.522;10.702;2022-11-04T03:48:40;97846.22;;;9.87;100.00
45621;BME280;31345;51.522;10.702;2022-11-04T03:51:10;97846.09;;;9.89;100.00
45621;BME280;31345;51.522;10.702;2022-11-04T03:53:38;97838.88;;;9.81;100.00
45621;BME280;31345;51.522;10.702;2022-11-04T03:56:26;97838.19;;;9.79;100.00
45621;BME280;31345;51.522;10.702;2022-11-04T03:59:09;97852.19;;;9.78;100.00
45621;BME280;31345;51.522;10.702;2022-11-04T04:01:49;97852.59;;;9.73;100.00
45621;BME280;31345;51.522;10.702;2022-11-04T04:04:24;97855.44;;;9.70;100.00
45621;BME280;31345;51.522;10.702;2022-11-04T04:07:00;97854.16;;;9.65;100.00
45621;BME280;31345;51.522;10.702;2022-11-04T04:09:36;97866.25;;;9.66;100.00
45621;BME280;31345;51.522;10.702;2022-11-04T04:12:09;97867.44;;;9.61;100.00
45621;BME280;31345;51.522;10.702;2022-11-04T04:14:42;97856.44;;;9.58;100.00
45621;BME280;31345;51.522;10.702;2022-11-04T04:17:18;97860.81;;;9.90;100.00
45621;BME280;31345;51.522;10.702;2022-11-04T04:19:51;97864.28;;;10.00;100.00
45621;BME280;31345;51.522;10.702;2022-11-04T04:22:23;97854.34;;;10.06;100.00
45621;BME280;31345;51.522;10.702;2022-11-04T04:24:53;97866.22;;;9.98;100.00
45621;BME280;31345;51.522;10.702;2022-11-04T04:27:44;97869.47;;;10.12;100.00
45621;BME280;31345;51.522;10.702;2022-11-04T04:30:15;97875.38;;;9.93;100.00
45621;BME280;31345;51.522;10.702;2022-11-04T04:32:46;97875.91;;;10.08;100.00
45621;BME280;31345;51.522;10.702;2022-11-04T04:35:16;97886.66;;;9.93;100.00
45621;BME280;31345;51.522;10.702;2022-11-04T04:38:04;97903.28;;;10.13;100.00
45621;BME280;31345;51.522;10.702;2022-11-04T04:40:56;97903.94;;;10.06;100.00
45621;BME280;31345;51.522;10.702;2022-11-04T04:43:43;97906.63;;;10.16;100.00
45621;BME280;31345;51.522;10.702;2022-11-04T04:46:30;97903.59;;;10.20;100.00
45621;BME280;31345;51.522;10.702;2022-11-04T04:49:04;97881.31;;;10.16;100.00
45621;BME280;31345;51.522;10.702;2022-11-04T04:51:35;97886.97;;;10.00;100.00
45621;BME280;31345;51.522;10.702;2022-11-04T04:54:05;97886.47;;;10.06;100.00
45621;BME280;31345;51.522;10.702;2022-11-04T04:56:33;97893.38;;;10.07;100.00
45621;BME280;31345;51.522;10.702;2022-11-04T04:59:01;97896.66;;;10.09;100.00
45621;BME280;31345;51.522;10.702;2022-11-04T05:01:32;97896.31;;;9.81;100.00
45621;BME280;31345;51.522;10.702;2022-11-04T05:04:00;97908.19;;;9.74;100.00
45621;BME280;31345;51.522;10.702;2022-11-04T05:06:30;97910.56;;;9.77;100.00
45621;BME280;31345;51.522;10.702;2022-11-04T05:09:00;97923.28;;;9.70;100.00
45621;BME280;31345;51.522;10.702;2022-11-04T05:11:29;97924.25;;;9.69;100.00
45621;BME280;31345;51.522;10.702;2022-11-04T05:13:56;97929.56;;;9.79;100.00
45621;BME280;31345;51.522;10.702;2022-11-04T05:16:24;97926.34;;;9.75;100.00
45621;BME280;31345;51.522;10.702;2022-11-04T05:18:52;97938.44;;;9.76;100.00
45621;BME280;31345;51.522;10.702;2022-11-04T05:21:22;97939.69;;;9.61;100.00
45621;BME280;31345;51.522;10.702;2022-11-04T05:23:51;97930.09;;;9.61;100.00
45621;BME280;31345;51.522;10.702;2022-11-04T05:26:19;97932.59;;;9.52;100.00
45621;BME280;31345;51.522;10.702;2022-11-04T05:28:47;97940.44;;;9.52;100.00
45621;BME280;31345;51.522;10.702;2022-11-04T05:31:15;97948.63;;;9.47;100.00
45621;BME280;31345;51.522;10.702;2022-11-04T05:33:43;97970.94;;;9.51;100.00
45621;BME280;31345;51.522;10.702;2022-11-04T05:36:13;97974.84;;;9.45;100.00
45621;BME280;31345;51.522;10.702;2022-11-04T05:38:41;97990.97;;;9.50;100.00
45621;BME280;31345;51.522;10.702;2022-11-04T05:41:13;97981.28;;;9.41;100.00
45621;BME280;31345;51.522;10.702;2022-11-04T05:43:51;97984.81;;;9.40;100.00
45621;BME280;31345;51.522;10.702;2022-11-04T05:46:19;97977.94;;;9.39;100.00
45621;BME280;31345;51.522;10.702;2022-11-04T05:48:47;97972.25;;;9.34;100.00
45621;BME280;31345;51.522;10.702;2022-11-04T05:51:17;97980.53;;;9.39;100.00
45621;BME280;31345;51.522;10.702;2022-11-04T05:53:45;97984.81;;;9.29;100.00
45621;BME280;31345;51.522;10.702;2022-11-04T05:56:14;97973.47;;;9.18;100.00
45621;BME280;31345;51.522;10.702;2022-11-04T05:58:42;97981.28;;;9.18;100.00
45621;BME280;31345;51.522;10.702;2022-11-04T06:01:23;97997.78;;;9.07;100.00
45621;BME280;31345;51.522;10.702;2022-11-04T06:03:51;97996.69;;;9.10;100.00
45621;BME280;31345;51.522;10.702;2022-11-04T06:06:21;98000.84;;;9.13;100.00
45621;BME280;31345;51.522;10.702;2022-11-04T06:08:50;98005.94;;;9.03;100.00
45621;BME280;31345;51.522;10.702;2022-11-04T06:11:20;98011.84;;;9.16;100.00
45621;BME280;31345;51.522;10.702;2022-11-04T06:13:49;98020.13;;;8.76;100.00
45621;BME280;31345;51.522;10.702;2022-11-04T06:16:17;98021.53;;;8.68;100.00
45621;BME280;31345;51.522;10.702;2022-11-04T06:18:45;98020.50;;;8.82;100.00
45621;BME280;31345;51.522;10.702;2022-11-04T06:21:28;98029.56;;;8.54;100.00
45621;BME280;31345;51.522;10.702;2022-11-04T06:23:57;98030.78;;;8.61;100.00
45621;BME280;31345;51.522;10.702;2022-11-04T06:26:30;98027.88;;;8.53;100.00
45621;BME280;31345;51.522;10.702;2022-11-04T06:28:57;98031.66;;;8.37;100.00
45621;BME280;31345;51.522;10.702;2022-11-04T06:31:25;98030.97;;;8.46;100.00
45621;BME280;31345;51.522;10.702;2022-11-04T06:33:53;98033.28;;;8.74;100.00
45621;BME280;31345;51.522;10.702;2022-11-04T06:36:21;98049.28;;;8.81;100.00
45621;BME280;31345;51.522;10.702;2022-11-04T06:38:49;98046.31;;;8.74;100.00
45621;BME280;31345;51.522;10.702;2022-11-04T06:41:18;98051.19;;;8.90;100.00
45621;BME280;31345;51.522;10.702;2022-11-04T06:43:47;98039.00;;;8.79;100.00
45621;BME280;31345;51.522;10.702;2022-11-04T06:46:26;98039.09;;;8.78;100.00
45621;BME280;31345;51.522;10.702;2022-11-04T06:48:55;98040.16;;;8.86;100.00
45621;BME280;31345;51.522;10.702;2022-11-04T06:51:26;98035.19;;;8.83;100.00
45621;BME280;31345;51.522;10.702;2022-11-04T06:53:54;98039.72;;;8.93;100.00
45621;BME280;31345;51.522;10.702;2022-11-04T06:56:21;98030.47;;;8.89;100.00
45621;BME280;31345;51.522;10.702;2022-11-04T06:58:52;98037.09;;;8.93;100.00
45621;BME280;31345;51.522;10.702;2022-11-04T07:01:22;98053.34;;;8.85;100.00
45621;BME280;31345;51.522;10.702;2022-11-04T07:03:51;98052.75;;;8.93;100.00
45621;BME280;31345;51.522;10.702;2022-11-04T07:06:20;98059.59;;;8.94;100.00
45621;BME280;31345;51.522;10.702;2022-11-04T07:08:50;98062.59;;;8.89;100.00
45621;BME280;31345;51.522;10.702;2022-11-04T07:11:20;98063.63;;;8.86;100.00
45621;BME280;31345;51.522;10.702;2022-11-04T07:13:48;98059.84;;;8.91;100.00
45621;BME280;31345;51.522;10.702;2022-11-04T07:16:18;98063.16;;;8.93;100.00
45621;BME280;31345;51.522;10.702;2022-11-04T07:18:46;98053.72;;;9.03;100.00
45621;BME280;31345;51.522;10.702;2022-11-04T07:21:17;98055.00;;;8.97;100.00
45621;BME280;31345;51.522;10.702;2022-11-04T07:23:45;98062.56;;;9.01;100.00
45621;BME280;31345;51.522;10.702;2022-11-04T07:26:13;98076.56;;;9.11;100.00
45621;BME280;31345;51.522;10.702;2022-11-04T07:28:41;98084.75;;;9.06;100.00
45621;BME280;31345;51.522;10.702;2022-11-04T07:31:10;98097.19;;;9.03;100.00
45621;BME280;31345;51.522;10.702;2022-11-04T07:33:40;98097.88;;;9.05;100.00
45621;BME280;31345;51.522;10.702;2022-11-04T07:36:11;98095.16;;;9.06;100.00
45621;BME280;31345;51.522;10.702;2022-11-04T07:38:48;98095.91;;;9.20;100.00
45621;BME280;31345;51.522;10.702;2022-11-04T07:41:20;98092.13;;;9.13;100.00
45621;BME280;31345;51.522;10.702;2022-11-04T07:43:49;98094.38;;;9.06;100.00
45621;BME280;31345;51.522;10.702;2022-11-04T07:46:18;98097.78;;;9.06;100.00
45621;BME280;31345;51.522;10.702;2022-11-04T07:48:47;98103.72;;;9.08;100.00
45621;BME280;31345;51.522;10.702;2022-11-04T07:51:26;98104.53;;;9.09;100.00
45621;BME280;31345;51.522;10.702;2022-11-04T07:53:54;98112.84;;;9.03;100.00
45621;BME280;31345;51.522;10.702;2022-11-04T07:56:22;98107.16;;;9.09;100.00
45621;BME280;31345;51.522;10.702;2022-11-04T07:58:51;98099.91;;;9.01;100.00
45621;BME280;31345;51.522;10.702;2022-11-04T08:01:22;98095.53;;;9.02;100.00
45621;BME280;31345;51.522;10.702;2022-11-04T08:03:59;98107.03;;;9.10;100.00
45621;BME280;31345;51.522;10.702;2022-11-04T08:06:29;98121.50;;;9.15;100.00
45621;BME280;31345;51.522;10.702;2022-11-04T08:08:57;98123.06;;;9.17;100.00
45621;BME280;31345;51.522;10.702;2022-11-04T08:11:25;98127.91;;;9.22;100.00
45621;BME280;31345;51.522;10.702;2022-11-04T08:13:54;98126.63;;;9.28;100.00
45621;BME280;31345;51.522;10.702;2022-11-04T08:16:23;98133.03;;;9.35;100.00
45621;BME280;31345;51.522;10.702;2022-11-04T08:18:51;98144.31;;;9.35;100.00
45621;BME280;31345;51.522;10.702;2022-11-04T08:21:29;98143.81;;;9.30;100.00
45621;BME280;31345;51.522;10.702;2022-11-04T08:23:58;98150.34;;;9.36;100.00
45621;BME280;31345;51.522;10.702;2022-11-04T08:26:29;98145.47;;;9.43;100.00
45621;BME280;31345;51.522;10.702;2022-11-04T08:29:08;98151.75;;;9.40;100.00
45621;BME280;31345;51.522;10.702;2022-11-04T08:31:36;98150.94;;;9.40;100.00
45621;BME280;31345;51.522;10.702;2022-11-04T08:34:04;98152.13;;;9.35;100.00
45621;BME280;31345;51.522;10.702;2022-11-04T08:36:36;98148.94;;;9.43;100.00
45621;BME280;31345;51.522;10.702;2022-11-04T08:39:07;98148.34;;;9.40;100.00
45621;BME280;31345;51.522;10.702;2022-11-04T08:41:35;98143.25;;;9.38;100.00
45621;BME280;31345;51.522;10.702;2022-11-04T08:44:04;98142.16;;;9.41;100.00
45621;BME280;31345;51.522;10.702;2022-11-04T08:46:34;98146.44;;;9.53;100.00
45621;BME280;31345;51.522;10.702;2022-11-04T08:49:03;98148.69;;;9.46;100.00
45621;BME280;31345;51.522;10.702;2022-11-04T08:51:32;98136.84;;;9.54;100.00
45621;BME280;31345;51.522;10.702;2022-11-04T08:54:02;98134.72;;;9.59;100.00
45621;BME280;31345;51.522;10.702;2022-11-04T08:56:31;98133.28;;;9.55;100.00
45621;BME280;31345;51.522;10.702;2022-11-04T08:59:00;98131.84;;;9.85;100.00
45621;BME280;31345;51.522;10.702;2022-11-04T09:01:32;98122.22;;;9.97;100.00
45621;BME280;31345;51.522;10.702;2022-11-04T09:04:00;98112.03;;;9.71;100.00
45621;BME280;31345;51.522;10.702;2022-11-04T09:06:31;98100.78;;;9.70;100.00
45621;BME280;31345;51.522;10.702;2022-11-04T09:08:59;98092.31;;;9.89;100.00
45621;BME280;31345;51.522;10.702;2022-11-04T09:11:33;98084.81;;;9.96;100.00
45621;BME280;31345;51.522;10.702;2022-11-04T09:14:03;98069.41;;;9.93;100.00
45621;BME280;31345;51.522;10.702;2022-11-04T09:16:32;98063.38;;;10.04;100.00
45621;BME280;31345;51.522;10.702;2022-11-04T09:19:00;98055.03;;;9.99;100.00
45621;BME280;31345;51.522;10.702;2022-11-04T09:21:28;98043.44;;;10.03;100.00
45621;BME280;31345;51.522;10.702;2022-11-04T09:23:56;98042.69;;;10.01;100.00
45621;BME280;31345;51.522;10.702;2022-11-04T09:26:24;98040.75;;;10.14;100.00
45621;BME280;31345;51.522;10.702;2022-11-04T09:28:54;98046.47;;;10.20;100.00
45621;BME280;31345;51.522;10.702;2022-11-04T09:31:23;98050.81;;;10.31;100.00
45621;BME280;31345;51.522;10.702;2022-11-04T09:33:52;98051.69;;;10.41;100.00
45621;BME280;31345;51.522;10.702;2022-11-04T09:36:21;98057.81;;;10.51;100.00
45621;BME280;31345;51.522;10.702;2022-11-04T09:38:49;98058.53;;;10.53;100.00
45621;BME280;31345;51.522;10.702;2022-11-04T09:44:19;98072.41;;;10.54;100.00
45621;BME280;31345;51.522;10.702;2022-11-04T09:46:50;98080.03;;;10.57;100.00
45621;BME280;31345;51.522;10.702;2022-11-04T09:49:19;98089.97;;;10.63;100.00
45621;BME280;31345;51.522;10.702;2022-11-04T09:51:48;98097.91;;;10.73;99.35
45621;BME280;31345;51.522;10.702;2022-11-04T09:54:20;98105.03;;;10.71;100.00
45621;BME280;31345;51.522;10.702;2022-11-04T09:56:50;98105.34;;;10.78;99.53
45621;BME280;31345;51.522;10.702;2022-11-04T09:59:24;98122.34;;;10.72;100.00
45621;BME280;31345;51.522;10.702;2022-11-04T10:02:17;98111.94;;;10.61;100.00
45621;BME280;31345;51.522;10.702;2022-11-04T10:04:54;98113.25;;;10.88;97.76
45621;BME280;31345;51.522;10.702;2022-11-04T10:07:50;98108.91;;;10.77;95.99
45621;BME280;31345;51.522;10.702;2022-11-04T10:10:28;98106.06;;;10.80;96.98
45621;BME280;31345;51.522;10.702;2022-11-04T10:13:07;98113.56;;;10.95;97.94
45621;BME280;31345;51.522;10.702;2022-11-04T10:16:06;98104.00;;;11.05;94.63
45621;BME280;31345;51.522;10.702;2022-11-04T10:18:47;98102.16;;;10.96;95.50
45621;BME280;31345;51.522;10.702;2022-11-04T10:21:31;98105.47;;;10.98;95.18
45621;BME280;31345;51.522;10.702;2022-11-04T10:24:22;98113.00;;;10.91;94.32
45621;BME280;31345;51.522;10.702;2022-11-04T10:26:55;98104.06;;;10.94;93.92
45621;BME280;31345;51.522;10.702;2022-11-04T10:29:35;98098.72;;;10.95;95.55
45621;BME280;31345;51.522;10.702;2022-11-04T10:32:14;98093.47;;;10.95;96.35
45621;BME280;31345;51.522;10.702;2022-11-04T10:34:47;98091.59;;;10.97;93.20
45621;BME280;31345;51.522;10.702;2022-11-04T10:37:18;98094.88;;;10.99;94.32
45621;BME280;31345;51.522;10.702;2022-11-04T10:39:49;98100.81;;;11.01;94.72
45621;BME280;31345;51.522;10.702;2022-11-04T10:42:20;98094.44;;;10.94;94.50
45621;BME280;31345;51.522;10.702;2022-11-04T10:44:49;98099.91;;;11.12;94.15
45621;BME280;31345;51.522;10.702;2022-11-04T10:47:27;98107.19;;;11.09;93.74
45621;BME280;31345;51.522;10.702;2022-11-04T10:53:08;98104.44;;;11.10;94.04
45621;BME280;31345;51.522;10.702;2022-11-04T10:55:43;98105.78;;;11.04;93.39
45621;BME280;31345;51.522;10.702;2022-11-04T10:58:18;98099.00;;;11.23;92.74
45621;BME280;31345;51.522;10.702;2022-11-04T11:00:48;98104.06;;;11.15;94.39
45621;BME280;31345;51.522;10.702;2022-11-04T11:03:27;98106.59;;;11.26;91.74
45621;BME280;31345;51.522;10.702;2022-11-04T11:06:23;98107.31;;;11.07;94.10
45621;BME280;31345;51.522;10.702;2022-11-04T11:08:54;98111.13;;;11.03;93.43
45621;BME280;31345;51.522;10.702;2022-11-04T11:11:36;98107.59;;;11.04;92.18
45621;BME280;31345;51.522;10.702;2022-11-04T11:14:15;98109.53;;;11.12;94.81
45621;BME280;31345;51.522;10.702;2022-11-04T11:16:44;98114.41;;;11.16;96.22
45621;BME280;31345;51.522;10.702;2022-11-04T11:19:19;98098.00;;;11.46;93.70
45621;BME280;31345;51.522;10.702;2022-11-04T11:21:49;98099.25;;;11.20;94.20
45621;BME280;31345;51.522;10.702;2022-11-04T11:24:19;98086.72;;;11.14;94.33
45621;BME280;31345;51.522;10.702;2022-11-04T11:26:49;98089.09;;;11.27;94.20
45621;BME280;31345;51.522;10.702;2022-11-04T11:29:22;98081.97;;;11.29;93.91
45621;BME280;31345;51.522;10.702;2022-11-04T11:31:52;98085.78;;;11.25;93.69
45621;BME280;31345;51.522;10.702;2022-11-04T11:34:25;98089.06;;;11.48;92.22
45621;BME280;31345;51.522;10.702;2022-11-04T11:36:55;98085.91;;;11.23;92.59
45621;BME280;31345;51.522;10.702;2022-11-04T11:39:24;98086.59;;;11.15;93.27
45621;BME280;31345;51.522;10.702;2022-11-04T11:41:56;98085.31;;;11.41;91.01
45621;BME280;31345;51.522;10.702;2022-11-04T11:44:30;98095.22;;;11.37;93.71
45621;BME280;31345;51.522;10.702;2022-11-04T11:47:01;98101.41;;;11.36;92.55
45621;BME280;31345;51.522;10.702;2022-11-04T11:49:33;98109.06;;;11.59;92.79
45621;BME280;31345;51.522;10.702;2022-11-04T11:54:45;98118.34;;;11.73;90.95
45621;BME280;31345;51.522;10.702;2022-11-04T11:57:25;98116.72;;;11.82;90.87
45621;BME280;31345;51.522;10.702;2022-11-04T11:59:56;98112.69;;;11.99;89.36
45621;BME280;31345;51.522;10.702;2022-11-04T12:02:34;98117.94;;;12.09;87.29
45621;BME280;31345;51.522;10.702;2022-11-04T12:05:10;98118.91;;;12.08;89.32
45621;BME280;31345;51.522;10.702;2022-11-04T12:07:43;98114.66;;;11.76;89.80
45621;BME280;31345;51.522;10.702;2022-11-04T12:10:23;98113.94;;;12.05;89.07
45621;BME280;31345;51.522;10.702;2022-11-04T12:13:00;98110.53;;;11.83;88.97
45621;BME280;31345;51.522;10.702;2022-11-04T12:15:39;98111.56;;;12.02;87.64
45621;BME280;31345;51.522;10.702;2022-11-04T12:18:40;98127.56;;;11.99;87.53
45621;BME280;31345;51.522;10.702;2022-11-04T12:21:13;98126.53;;;11.80;87.52
45621;BME280;31345;51.522;10.702;2022-11-04T12:23:49;98134.81;;;11.85;88.30
45621;BME280;31345;51.522;10.702;2022-11-04T12:26:30;98147.19;;;11.83;89.28
45621;BME280;31345;51.522;10.702;2022-11-04T12:29:19;98151.63;;;11.82;88.04
45621;BME280;31345;51.522;10.702;2022-11-04T12:32:00;98143.13;;;11.69;87.15
45621;BME280;31345;51.522;10.702;2022-11-04T12:34:43;98147.22;;;11.93;86.99
45621;BME280;31345;51.522;10.702;2022-11-04T12:37:24;98146.16;;;11.64;89.51
45621;BME280;31345;51.522;10.702;2022-11-04T12:40:06;98144.03;;;11.89;88.64
45621;BME280;31345;51.522;10.702;2022-11-04T12:42:44;98140.03;;;11.85;87.73
45621;BME280;31345;51.522;10.702;2022-11-04T12:45:23;98143.91;;;11.91;87.23
45621;BME280;31345;51.522;10.702;2022-11-04T12:47:54;98136.25;;;11.99;87.04
45621;BME280;31345;51.522;10.702;2022-11-04T12:50:42;98134.31;;;11.60;89.50
45621;BME280;31345;51.522;10.702;2022-11-04T12:53:35;98141.75;;;11.65;87.85
45621;BME280;31345;51.522;10.702;2022-11-04T12:56:08;98139.44;;;11.72;89.07
45621;BME280;31345;51.522;10.702;2022-11-04T12:58:51;98144.81;;;11.70;90.96
45621;BME280;31345;51.522;10.702;2022-11-04T13:01:30;98135.25;;;11.59;90.30
45621;BME280;31345;51.522;10.702;2022-11-04T13:04:05;98144.09;;;11.37;92.13
45621;BME280;31345;51.522;10.702;2022-11-04T13:06:40;98138.78;;;11.48;87.77
45621;BME280;31345;51.522;10.702;2022-11-04T13:09:14;98138.41;;;11.53;89.05
45621;BME280;31345;51.522;10.702;2022-11-04T13:11:46;98131.78;;;11.49;90.35
45621;BME280;31345;51.522;10.702;2022-11-04T13:14:20;98130.13;;;11.48;91.46
45621;BME280;31345;51.522;10.702;2022-11-04T13:16:57;98135.25;;;11.59;92.19
45621;BME280;31345;51.522;10.702;2022-11-04T13:19:31;98138.06;;;11.67;90.86
45621;BME280;31345;51.522;10.702;2022-11-04T13:22:02;98134.91;;;11.74;88.73
45621;BME280;31345;51.522;10.702;2022-11-04T13:24:37;98134.66;;;11.87;84.90
45621;BME280;31345;51.522;10.702;2022-11-04T13:27:15;98143.13;;;11.69;88.97
45621;BME280;31345;51.522;10.702;2022-11-04T13:29:45;98147.75;;;11.87;88.73
45621;BME280;31345;51.522;10.702;2022-11-04T13:32:18;98151.78;;;11.91;88.01